地図

経路データ

SID SEASON NUMBER BASIN SUBBASIN NAME ISO_TIME NATURE LAT LON WMO_WIND WMO_PRES WMO_AGENCY TRACK_TYPE DIST2LAND LANDFALL IFLAG USA_AGENCY USA_ATCF_ID USA_LAT USA_LON USA_RECORD USA_STATUS USA_WIND USA_PRES USA_SSHS USA_R34_NE USA_R34_SE USA_R34_SW USA_R34_NW USA_R50_NE USA_R50_SE USA_R50_SW USA_R50_NW USA_R64_NE USA_R64_SE USA_R64_SW USA_R64_NW USA_POCI USA_ROCI USA_RMW USA_EYE TOKYO_LAT TOKYO_LON TOKYO_GRADE TOKYO_WIND TOKYO_PRES TOKYO_R50_DIR TOKYO_R50_LONG TOKYO_R50_SHORT TOKYO_R30_DIR TOKYO_R30_LONG TOKYO_R30_SHORT TOKYO_LAND CMA_LAT CMA_LON CMA_CAT CMA_WIND CMA_PRES HKO_LAT HKO_LON HKO_CAT HKO_WIND HKO_PRES NEWDELHI_LAT NEWDELHI_LON NEWDELHI_GRADE NEWDELHI_WIND NEWDELHI_PRES NEWDELHI_CI NEWDELHI_DP NEWDELHI_POCI REUNION_LAT REUNION_LON REUNION_TYPE REUNION_WIND REUNION_PRES REUNION_TNUM REUNION_CI REUNION_RMW REUNION_R34_NE REUNION_R34_SE REUNION_R34_SW REUNION_R34_NW REUNION_R50_NE REUNION_R50_SE REUNION_R50_SW REUNION_R50_NW REUNION_R64_NE REUNION_R64_SE REUNION_R64_SW REUNION_R64_NW BOM_LAT BOM_LON BOM_TYPE BOM_WIND BOM_PRES BOM_TNUM BOM_CI BOM_RMW BOM_R34_NE BOM_R34_SE BOM_R34_SW BOM_R34_NW BOM_R50_NE BOM_R50_SE BOM_R50_SW BOM_R50_NW BOM_R64_NE BOM_R64_SE BOM_R64_SW BOM_R64_NW BOM_ROCI BOM_POCI BOM_EYE BOM_POS_METHOD BOM_PRES_METHOD NADI_LAT NADI_LON NADI_CAT NADI_WIND NADI_PRES WELLINGTON_LAT WELLINGTON_LON WELLINGTON_WIND WELLINGTON_PRES DS824_LAT DS824_LON DS824_STAGE DS824_WIND DS824_PRES TD9636_LAT TD9636_LON TD9636_STAGE TD9636_WIND TD9636_PRES TD9635_LAT TD9635_LON TD9635_WIND TD9635_PRES TD9635_ROCI NEUMANN_LAT NEUMANN_LON NEUMANN_CLASS NEUMANN_WIND NEUMANN_PRES MLC_LAT MLC_LON MLC_CLASS MLC_WIND MLC_PRES USA_GUST BOM_GUST BOM_GUST_PER REUNION_GUST REUNION_GUST_PER USA_SEAHGT USA_SEARAD_NE USA_SEARAD_SE USA_SEARAD_SW USA_SEARAD_NW STORM_SPEED STORM_DIR
1925132N11092 1925 19 NI BB NOT_NAMED 1925-05-12 00:00:00 TS 11.2000 91.6000 main 597 593 _________O____ -1 11.2000 91.6000 TC 30 5 294
1925132N11092 1925 19 NI BB NOT_NAMED 1925-05-12 03:00:00 TS 11.2984 91.3734 main 599 595 _________PO___ -1 11.3476 91.2600 TC 30 11.2000 91.6000 1 6 294
1925132N11092 1925 19 NI BB NOT_NAMED 1925-05-12 06:00:00 TS 11.4451 91.0320 main 614 605 _________OP___ -1 11.5000 90.9000 TC 30 11.3628 91.2301 1 8 293
1925132N11092 1925 19 NI BB NOT_NAMED 1925-05-12 09:00:00 TS 11.5987 90.6577 main 617 617 _________PP___ -1 11.6575 90.5075 TC 30 11.5204 90.8579 1 8 292
1925132N11092 1925 19 NI BB NOT_NAMED 1925-05-12 12:00:00 TS 11.7339 90.2909 main 637 637 _________OP___ -1 11.8000 90.1000 TC 30 11.6677 90.4818 1 8 289
1925132N11092 1925 19 NI BB NOT_NAMED 1925-05-12 15:00:00 TS 11.8537 89.9000 main 652 652 _________PO___ -1 11.9074 89.6999 TC 31 11.8000 90.1000 1 8 286
1925132N11092 1925 19 NI BB NOT_NAMED 1925-05-12 18:00:00 TS 11.9571 89.5055 main 676 676 _________OP___ -1 12.0000 89.3000 TC 32 11.9142 89.7111 1 8 285
1925132N11092 1925 19 NI BB NOT_NAMED 1925-05-12 21:00:00 TS 12.0574 89.1074 main 702 702 _________PP___ -1 12.0999 88.9000 TC 33 12.0148 89.3148 1 8 284
1925132N11092 1925 19 NI BB NOT_NAMED 1925-05-13 00:00:00 TS 12.1540 88.7055 main 730 730 _________OP___ -1 12.2000 88.5000 TC 34 12.1079 88.9111 1 8 284
1925132N11092 1925 19 NI BB NOT_NAMED 1925-05-13 03:00:00 TS 12.2500 88.3037 main 765 759 _________PO___ -1 12.2999 88.1075 TC 36 12.2000 88.5000 2 8 284
1925132N11092 1925 19 NI BB NOT_NAMED 1925-05-13 06:00:00 TS 12.3520 87.8911 main 764 731 _________OP___ -1 12.4000 87.7000 TC 39 12.3039 88.0822 2 9 284
1925132N11092 1925 19 NI BB NOT_NAMED 1925-05-13 09:00:00 TS 12.4536 87.4537 main 723 683 _________PP___ -1 12.5000 87.2500 TC 42 12.4073 87.6575 2 9 283
1925132N11092 1925 19 NI BB NOT_NAMED 1925-05-13 12:00:00 TS 12.5535 87.0145 main 675 643 _________OP___ -1 12.6000 86.8000 TC 45 12.5070 87.2290 2 9 283
1925132N11092 1925 19 NI BB NOT_NAMED 1925-05-13 15:00:00 TS 12.6537 86.6000 main 636 605 _________PO___ -1 12.7074 86.4000 TC 49 12.6000 86.8000 3 8 283
1925132N11092 1925 19 NI BB NOT_NAMED 1925-05-13 18:00:00 TS 12.7410 86.1895 main 605 568 _________OP___ -1 12.8000 86.0000 TC 54 12.6819 86.3789 3 8 281
1925132N11092 1925 19 NI BB NOT_NAMED 1925-05-13 21:00:00 TS 12.8073 85.7574 main 568 525 _________PP___ -1 12.8575 85.5574 TC 59 12.7572 85.9573 3 9 278
1925132N11092 1925 19 NI BB NOT_NAMED 1925-05-14 00:00:00 TS 12.8644 85.3160 main 525 499 _________OP___ -1 12.9000 85.1000 TC 64 12.8288 85.5320 3 9 278
1925132N11092 1925 19 NI BB NOT_NAMED 1925-05-14 03:00:00 TS 12.9212 84.8750 main 499 445 _________PO___ -1 12.9424 84.6499 TC 64 12.9000 85.1000 4 9 277
1925132N11092 1925 19 NI BB NOT_NAMED 1925-05-14 06:00:00 TS 12.9774 84.4183 main 445 402 _________OP___ -1 13.0000 84.2000 TC 64 12.9547 84.6367 4 9 278
1925132N11092 1925 19 NI BB NOT_NAMED 1925-05-14 09:00:00 TS 13.0488 83.9523 main 402 347 _________PP___ -1 13.0850 83.7350 TC 64 13.0126 84.1697 4 9 281
1925132N11092 1925 19 NI BB NOT_NAMED 1925-05-14 12:00:00 TS 13.1446 83.5089 main 347 303 _________OP___ -1 13.2000 83.3000 TC 64 13.0892 83.7179 4 8 285
1925132N11092 1925 19 NI BB NOT_NAMED 1925-05-14 15:00:00 TS 13.2637 83.1137 main 303 270 _________PO___ -1 13.3274 82.9274 TC 64 13.2000 83.3000 4 8 291
1925132N11092 1925 19 NI BB NOT_NAMED 1925-05-14 18:00:00 TS 13.4320 82.7534 main 270 227 _________OP___ -1 13.5000 82.6000 TC 64 13.3639 82.9068 4 8 300
1925132N11092 1925 19 NI BB NOT_NAMED 1925-05-14 21:00:00 TS 13.6524 82.4115 main 226 194 _________PP___ -1 13.7425 82.2701 TC 64 13.5624 82.5528 4 8 307
1925132N11092 1925 19 NI BB NOT_NAMED 1925-05-15 00:00:00 TS 13.8898 82.1237 main 194 175 _________OP___ -1 14.0000 82.0000 TC 64 13.7796 82.2474 4 7 313
1925132N11092 1925 19 NI BB NOT_NAMED 1925-05-15 03:00:00 TS 14.1037 81.9100 main 175 168 _________PO___ -1 14.2074 81.8199 TC 64 14.0000 82.0000 4 6 319
1925132N11092 1925 19 NI BB NOT_NAMED 1925-05-15 06:00:00 TS 14.3060 81.7526 main 171 151 _________OP___ -1 14.4000 81.7000 TC 64 14.2119 81.8051 4 5 327
1925132N11092 1925 19 NI BB NOT_NAMED 1925-05-15 09:00:00 TS 14.5186 81.6261 main 151 129 _________PP___ -1 14.6150 81.5850 TC 64 14.4222 81.6673 4 5 333
1925132N11092 1925 19 NI BB NOT_NAMED 1925-05-15 12:00:00 TS 14.7107 81.5354 main 129 119 _________OP___ -1 14.8000 81.5000 TC 64 14.6214 81.5708 4 4 336
1925132N11092 1925 19 NI BB NOT_NAMED 1925-05-15 15:00:00 TS 14.8537 81.4712 main 110 94 _________PO___ -1 14.9075 81.4425 TC 64 14.8000 81.5000 4 3 335
1925132N11092 1925 19 NI BB NOT_NAMED 1925-05-15 18:00:00 TS 14.9611 81.4141 main 94 85 _________OP___ -1 15.0000 81.4000 TC 64 14.9221 81.4283 4 2 335
1925132N11092 1925 19 NI BB NOT_NAMED 1925-05-15 21:00:00 TS 15.0775 81.3636 main 85 70 _________PP___ -1 15.1275 81.3500 TC 64 15.0275 81.3773 4 3 342
1925132N11092 1925 19 NI BB NOT_NAMED 1925-05-16 00:00:00 TS 15.2220 81.3188 main 70 54 _________OP___ -1 15.3000 81.3000 TC 64 15.1440 81.3377 4 3 346
1925132N11092 1925 19 NI BB NOT_NAMED 1925-05-16 03:00:00 TS 15.4138 81.2750 main 54 24 _________PO___ -1 15.5275 81.2500 TC 56 15.3000 81.3000 4 5 349
1925132N11092 1925 19 NI BB NOT_NAMED 1925-05-16 06:00:00 TS 15.6761 81.2230 main 24 0 _________OP___ -1 15.8000 81.2000 TC 49 15.5522 81.2460 4 6 350
1925132N11092 1925 19 NI BB NOT_NAMED 1925-05-16 09:00:00 TS 15.9788 81.1713 main 0 0 _________PP___ -1 16.1150 81.1500 TC 41 15.8425 81.1926 4 6 351
1925132N11092 1925 19 NI BB NOT_NAMED 1925-05-16 12:00:00 TS 16.2683 81.1214 main 0 0 _________OP___ -1 16.4000 81.1000 TC 34 16.1366 81.1429 4 5 349
1925132N11092 1925 19 NI BB NOT_NAMED 1925-05-16 15:00:00 TS 16.4862 81.0712 main 0 0 _________PO___ -1 16.5725 81.0425 TC 33 16.4000 81.1000 2 4 346
1925132N11092 1925 19 NI BB NOT_NAMED 1925-05-16 18:00:00 TS 16.6287 81.0258 main 0 0 _________OP___ -1 16.7000 81.0000 TC 32 16.5575 81.0516 2 3 346
1925132N11092 1925 19 NI BB NOT_NAMED 1925-05-16 21:00:00 TS 16.7525 80.9988 main 0 0 _________PP___ -1 16.8200 80.9850 TC 31 16.6850 81.0126 2 3 350
1925132N11092 1925 19 NI BB NOT_NAMED 1925-05-17 00:00:00 TS 16.9100 80.9962 main 0 0 _________OP___ -1 17.0000 81.0000 TC 30 16.8200 80.9923 2 4 0
1925132N11092 1925 19 NI BB NOT_NAMED 1925-05-17 03:00:00 TS 17.1637 81.0175 main 0 0 _________PO___ -1 17.3275 81.0350 TC 30 17.0000 81.0000 1 6 6
1925132N11092 1925 19 NI BB NOT_NAMED 1925-05-17 06:00:00 TS 17.4894 81.0670 main 0 0 _________OP___ -1 17.7000 81.1000 TC 30 17.2787 81.0341 1 7 11
1925132N11092 1925 19 NI BB NOT_NAMED 1925-05-17 09:00:00 TS 17.8062 81.1450 main 0 0 _________PP___ -1 18.0075 81.1925 TC 30 17.6050 81.0975 1 7 15
1925132N11092 1925 19 NI BB NOT_NAMED 1925-05-17 12:00:00 TS 18.1269 81.2436 main 0 0 _________OP___ -1 18.3000 81.3000 TC 30 17.9537 81.1872 1 7 17
1925132N11092 1925 19 NI BB NOT_NAMED 1925-05-17 15:00:00 TS 18.4500 81.3426 main 0 0 _________PO___ -1 18.6000 81.3851 TC 30 18.3000 81.3000 1 6 16
1925132N11092 1925 19 NI BB NOT_NAMED 1925-05-17 18:00:00 TS 18.7410 81.4264 main 0 0 _________OP___ -1 18.9000 81.5000 TC 30 18.5820 81.3528 1 6 18
1925132N11092 1925 19 NI BB NOT_NAMED 1925-05-17 21:00:00 TS 19.0154 81.5353 main 0 0 _________PP___ -1 19.1697 81.6331 TC 30 18.8611 81.4376 1 7 27
1925132N11092 1925 19 NI BB NOT_NAMED 1925-05-18 00:00:00 TS 19.3298 81.7517 main 0 0 _________OP___ -1 19.5000 81.9000 TC 30 19.1597 81.6034 1 9 38
1925132N11092 1925 19 NI BB NOT_NAMED 1925-05-18 03:00:00 TS 19.7425 82.1374 main 0 0 _________PO___ -1 19.9850 82.3748 TC 30 19.5000 81.9000 1 12 45
1925132N11092 1925 19 NI BB NOT_NAMED 1925-05-18 06:00:00 TS 20.2077 82.6817 main 0 0 _________OP___ -1 20.5000 83.0000 TC 30 19.9153 82.3634 1 14 51
1925132N11092 1925 19 NI BB NOT_NAMED 1925-05-18 09:00:00 TS 20.6426 83.3124 main 0 0 _________PP___ -1 20.9148 83.6630 TC 30 20.3703 82.9618 1 15 56
1925132N11092 1925 19 NI BB NOT_NAMED 1925-05-18 12:00:00 TS 21.0700 84.0273 main 0 0 _________OP___ -1 21.3000 84.4000 TC 30 20.8400 83.6545 1 16 58
1925132N11092 1925 19 NI BB NOT_NAMED 1925-05-18 15:00:00 TS 21.5000 84.7964 main 0 0 _________PO___ -1 21.6999 85.1928 TC 30 21.3000 84.4000 1 17 60
1925132N11092 1925 19 NI BB NOT_NAMED 1925-05-18 18:00:00 TS 21.9139 85.5900 main 0 0 _________OP___ -1 22.1000 86.0000 TC 30 21.7278 85.1801 1 17 61
1925132N11092 1925 19 NI BB NOT_NAMED 1925-05-18 21:00:00 TS 22.3235 86.3983 main 0 0 _________PP___ -1 22.5076 86.8025 TC 30 22.1394 85.9941 1 16 61
1925132N11092 1925 19 NI BB NOT_NAMED 1925-05-19 00:00:00 TS 22.7155 87.1431 main 0 0 _________OP___ -1 22.9000 87.5000 TC 30 22.5311 86.7863 1 15 59
1925132N11092 1925 19 NI BB NOT_NAMED 1925-05-19 03:00:00 TS 23.0822 87.7441 main 0 0 _________PO___ -1 23.2643 87.9881 TC 30 22.9000 87.5000 1 12 55
1925132N11092 1925 19 NI BB NOT_NAMED 1925-05-19 06:00:00 TS 23.4243 88.2336 main 0 0 _________OP___ -1 23.6000 88.4000 TC 30 23.2486 88.0672 1 11 54
1925132N11092 1925 19 NI BB NOT_NAMED 1925-05-19 09:00:00 TS 23.7425 88.7251 main 0 0 _________PP___ -1 23.9075 88.9002 TC 30 23.5775 88.5499 1 11 55
1925132N11092 1925 19 NI BB NOT_NAMED 1925-05-19 12:00:00 TS 24.0464 89.1913 main 0 0 _________OP___ -1 24.2000 89.4000 TC 30 23.8928 88.9825 1 10 54
1925132N11092 1925 19 NI BB NOT_NAMED 1925-05-19 15:00:00 TS 24.3499 89.6289 main 0 0 _________PO___ -1 24.4998 89.8578 TC 30 24.2000 89.4000 1 10 53
1925132N11092 1925 19 NI BB NOT_NAMED 1925-05-19 18:00:00 TS 24.6306 90.0320 main 0 0 _________OP___ -1 24.8000 90.3000 TC 30 24.5036 89.8309 1 10 53
1925132N11092 1925 19 NI BB NOT_NAMED 1925-05-19 21:00:00 TS 24.9229 90.4653 main 0 0 _________PP___ -1 25.1003 90.7470 TC 30 24.8045 90.2776 1 10 54
1925132N11092 1925 19 NI BB NOT_NAMED 1925-05-20 00:00:00 TS 25.2022 90.8903 main 0 0 _________OP___ -1 25.4000 91.2000 TC 30 25.1032 90.7354 1 8 54
1925132N11092 1925 19 NI BB NOT_NAMED 1925-05-20 03:00:00 NR 25.4000 91.2000 main 0 __________O___ -1 TC 25.4000 91.2000 1 7 55

IBTrACS Databaseについて

本データベースは、米国NOAAが公開する1842年以降の世界の熱帯低気圧のベストトラックデータアーカイブInternational Best Track Archive for Climate Stewardship (IBTrACS)を、ウェブで閲覧しやすい形式に変換したものです。

最終更新日:2021-10-08